Home > Products > Valid Products > TAF

000
FTUS46 KPDT 230500
TAFYKM
TAF
KYKM 230520Z 2306/2406 VRB05KT P6SM FEW080 SCT120
     FM230900 VRB04KT P6SM SCT060 OVC090
     FM232000 20010G20KT P6SM BKN040 BKN070=



000
FTUS46 KPDT 230500
TAFDLS
TAF
KDLS 230520Z 2306/2406 VRB04KT P6SM FEW050 SCT120
     FM230900 31005KT P6SM SCT060 BKN130
     FM231600 32008KT P6SM SCT050 BKN090
     FM232100 32008G15KT P6SM VCSH BKN040 OVC060=



000
FTUS46 KPDT 230500
TAFRDM
TAF
KRDM 230520Z 2306/2406 VRB05KT P6SM FEW050 BKN070
     FM231200 VRB04KT P6SM BKN060 BKN080
     FM231800 22008G15KT P6SM VCSH BKN050 OVC070
     FM232200 25010G20KT P6SM -SHRA BKN040 OVC050=



000
FTUS46 KPDT 230500
TAFALW
TAF
KALW 230520Z 2306/2406 18008G15KT P6SM FEW070 BKN090 BKN120
     FM231200 19007KT P6SM SCT080 OVC130
     FM231800 21008G15KT P6SM VCSH BKN050 BKN070
     FM232200 22010G20KT P6SM -SHRA BKN040 OVC060=



000
FTUS46 KPDT 230500
TAFPSC
TAF
KPSC 230520Z 2306/2406 24008G15KT P6SM FEW070 BKN100
     FM231200 20007KT P6SM SCT060 BKN090
     FM231800 23008G15KT P6SM VCSH BKN050 OVC080
     FM232200 24010G20KT P6SM VCSH BKN040 OVC070=



000
FTUS46 KPDT 230500
TAFPDT
TAF
KPDT 230520Z 2306/2406 25008KT P6SM FEW120 SCT250
     FM231200 24005KT P6SM SCT070 OVC090
     FM231800 23010G20KT P6SM VCSH BKN050 BKN070
     FM232200 26012G22KT P6SM -SHRA BKN040 OVC060=



000
FTUS46 KPDT 230500 AAB
TAFALW
TAF AMD
KALW 230503Z 2305/2324 18008G15KT P6SM FEW070 BKN090 BKN120
     FM231200 19007KT P6SM SCT080 OVC130
     FM231800 21008G15KT P6SM VCSH BKN050 BKN070
     FM232200 22010G20KT P6SM -SHRA BKN040 OVC060=



000
FTUS46 KPDT 230400 AAB
TAFRDM
TAF AMD
KRDM 230414Z 2304/2324 VRB03KT P6SM SCT050 BKN070
     FM231200 23005KT P6SM BKN060 BKN090
     FM231800 22008G15KT P6SM VCSH BKN050 OVC070
     FM232200 25010G20KT P6SM -SHRA BKN040 OVC050=



000
FTUS46 KPDT 230400 AAA
TAFPDT
TAF AMD
KPDT 230411Z 2304/2324 30006KT P6SM FEW120 SCT250
     FM231200 24005KT P6SM SCT070 OVC090
     FM231800 23010G20KT P6SM VCSH BKN050 BKN070
     FM232200 26012G22KT P6SM -SHRA BKN040 OVC060=



000
FTUS46 KPDT 230400 AAB
TAFDLS
TAF AMD
KDLS 230409Z 2304/2324 34007KT P6SM SCT070 BKN100
     FM230600 31006KT P6SM SCT060 BKN080
     FM230900 30010KT P6SM -RA BKN035 OVC050
     FM231700 32008G15KT P6SM SCT050 BKN080
     FM232100 32008G15KT P6SM VCSH BKN040 OVC060=



000
FTUS46 KPDT 230300 AAA
TAFPDT
TAF AMD
KPDT 230300Z 2303/2324 27010G20KT P6SM FEW120 SCT250
     FM230800 24008G15KT P6SM SCT070 OVC090
     FM231800 23015G23KT P6SM VCSH BKN040 BKN070
     FM232200 26010G20KT P6SM -SHRA BKN035 OVC050=



000
FTUS46 KPDT 230200 AAB
TAFYKM
TAF AMD
KYKM 230258Z 2303/2324 23007KT P6SM SCT060
     FM230900 25007KT P6SM BKN050 OVC080
     FM232000 20012G20KT P6SM BKN040 BKN070=



000
FTUS46 KPDT 230200 AAA
TAFYKM
TAF AMD
KYKM 230227Z 2302/2324 31010G20KT P6SM SCT060
     FM230900 26007KT P6SM BKN050 OVC080
     FM232000 20012G20KT P6SM BKN040 BKN070=



000
FTUS46 KPDT 230100 AAC
TAFPSC
TAF AMD
KPSC 230143Z 2302/2324 27010G20KT P6SM SCT070 BKN110
     FM230600 23009KT P6SM BKN060 OVC080
     FM231000 20008KT P6SM BKN050 OVC070
     FM231500 23008G15KT P6SM VCSH BKN070 OVC090
     FM232100 33010G20KT P6SM VCSH BKN050 OVC070=



000
FTUS46 KPDT 230100 AAA
TAFRDM
TAF AMD
KRDM 230138Z 2302/2324 31008G15KT P6SM SCT070 BKN100
     FM230600 29008G15KT P6SM BKN050 OVC070
     FM231200 23007KT P6SM BKN060 BKN090
     FM231800 22008G15KT P6SM VCSH BKN050 OVC070
     FM232200 25010G20KT P6SM -SHRA BKN040 OVC050=



000
FTUS46 KPDT 230100 AAA
TAFDLS
TAF AMD
KDLS 230133Z 2302/2324 33010G20KT P6SM VCSH SCT080
      TEMPO 2302/2304 -SHRA BKN060
     FM230600 31008G15KT P6SM SCT060 BKN080
     FM230900 30010KT P6SM -RA BKN035 OVC050
     FM231700 32008G15KT P6SM SCT050 BKN080
     FM232100 32008G15KT P6SM VCSH BKN040 OVC060=



000
FTUS46 KPDT 230000 AAA
TAFALW
TAF AMD
KALW 230019Z 2300/2324 22012G22KT P6SM VCSH SCT070
      TEMPO 2300/2302 -SHRA BKN070
     FM230200 23014KT P6SM SCT050 BKN070
     FM230600 19012KT P6SM BKN040 OVC050
     FM230800 20012KT P6SM -RA BKN020 OVC030
     FM232000 23015G23KT P6SM BKN035 BKN060=



000
FTUS46 KPDT 230000 AAB
TAFPSC
TAF AMD
KPSC 230019Z 2300/2324 25015G25KT P6SM VCSH SCT070
      TEMPO 2300/2302 -SHRA BKN070
     FM230200 25014KT P6SM SCT070
     FM230600 23012KT P6SM BKN060 OVC080
     FM230800 20010KT P6SM -RA BKN025 OVC035
     FM231500 23013KT P6SM VCSH BKN070 OVC090
     FM232100 33010G20KT P6SM VCSH BKN050 OVC070=



000
FTUS46 KPDT 222300 AAA
TAFPSC
TAF AMD
KPSC 222334Z 2300/2324 25008KT P6SM VCSH SCT070
      TEMPO 2300/2302 -SHRA BKN070
     FM230200 25014KT P6SM SCT070
     FM230600 23012KT P6SM BKN060 OVC080
     FM230800 20010KT P6SM -RA BKN025 OVC035
     FM231500 23013KT P6SM VCSH BKN070 OVC090
     FM232100 33010G20KT P6SM VCSH BKN050 OVC070=



000
FTUS46 KPDT 222300
TAFALW
TAF
KALW 222328Z 2300/2324 27012G20KT P6SM VCSH SCT070
      TEMPO 2300/2302 -SHRA BKN070
     FM230200 23014KT P6SM SCT050 BKN070
     FM230600 19012KT P6SM BKN040 OVC050
     FM230800 20012KT P6SM -RA BKN020 OVC030
     FM232000 23015G23KT P6SM BKN035 BKN060=



000
FTUS46 KPDT 222300
TAFRDM
TAF
KRDM 222328Z 2300/2324 30018G26KT P6SM SCT050
     FM230300 29012KT P6SM BKN050 OVC070
     FM230800 23011KT P6SM -SHRASN OVC040
     FM231800 22015G23KT P6SM -RA BKN040 OVC050=



000
FTUS46 KPDT 222300
TAFDLS
TAF
KDLS 222328Z 2300/2324 30020G30KT P6SM VCSH SCT080
      TEMPO 2300/2301 -SHRA BKN060
     FM230200 31018G25KT P6SM SCT060 BKN080
     FM230900 30011KT P6SM -RA BKN035 OVC050
     FM231700 32013G20KT P6SM SCT050 BKN080=



000
FTUS46 KPDT 222300
TAFYKM
TAF
KYKM 222328Z 2300/2324 30020G30KT P6SM SCT060
     FM230300 27011KT P6SM BKN120
     FM230600 26007KT P6SM BKN050 OVC080
     FM232000 20012G20KT P6SM BKN040 BKN070=



000
FTUS46 KPDT 222300
TAFPDT
TAF
KPDT 222328Z 2300/2324 27022G32KT P6SM FEW070 FEW120 SCT250
     FM230400 25017G27KT P6SM SCT050 BKN100
     FM230800 24014KT P6SM -RA SCT025 OVC035
     FM231800 23015G23KT P6SM BKN040 BKN070=



000
FTUS46 KPDT 222300
TAFPSC
TAF
KPSC 222328Z 2300/2324 26016G26KT P6SM VCSH SCT070
      TEMPO 2300/2302 -SHRA BKN070
     FM230200 25014KT P6SM SCT070
     FM230600 23012KT P6SM BKN060 OVC080
     FM230800 20010KT P6SM -RA BKN025 OVC035
     FM231500 23013KT P6SM VCSH BKN070 OVC090=



000
FTUS46 KPDT 222200 AAB
TAFALW
TAF AMD
KALW 222259Z 2223/2318 25014G22KT P6SM FEW070 FEW110
     FM230000 24014G22KT P6SM VCSH SCT070
      TEMPO 2300/2302 -SHRA BKN070
     FM230200 22014KT P6SM SCT050 BKN070
     FM230600 19012KT P6SM BKN040 OVC050
     FM230800 20012KT P6SM -RA BKN020 OVC030=



000
FTUS46 KPDT 222200 AAB
TAFPSC
TAF AMD
KPSC 222231Z 2223/2318 27018G28KT P6SM SCT070
     FM230000 26016G26KT P6SM VCSH SCT070
      TEMPO 2300/2302 -SHRA BKN070
     FM230200 25014KT P6SM SCT070
     FM230600 23012KT P6SM BKN060 OVC080
     FM230800 20010KT P6SM -RA BKN025 OVC035
     FM231500 23013KT P6SM VCSH BKN070 OVC090=



000
FTUS46 KPDT 222200 AAA
TAFPSC
TAF AMD
KPSC 222219Z 2222/2318 27018G28KT P6SM SCT070
     FM230000 26014G22KT P6SM FEW070
     FM230400 23012KT P6SM OVC070
     FM230800 20010KT P6SM -RA BKN025 OVC030
     FM231500 22010KT P6SM VCSH BKN070 OVC100=



000
FTUS46 KPDT 222100 AAA
TAFPDT
TAF AMD
KPDT 222152Z 2222/2318 27023G33KT P6SM FEW070 FEW120 SCT250
     FM230400 25017G27KT P6SM SCT050 BKN100
     FM230800 24014KT P6SM -SHRA SCT025 OVC035=



000
FTUS46 KPDT 221800 AAA
TAFALW
TAF AMD
KALW 221818Z 2218/2318 21012KT 3SM -RA BR BKN025 BKN030 OVC035
     FM221900 23012G20KT 6SM BR VCSH SCT030 BKN040 BKN045
     FM222000 23020G28KT P6SM BKN050 BKN090
     FM230300 21014KT P6SM SCT070 BKN100
     FM230600 19011KT P6SM -SHRA BKN025 OVC035=



000
FTUS46 KPDT 221700
TAFYKM
TAF
KYKM 221737Z 2218/2318 31014G24KT P6SM FEW060 SCT090
     FM222100 29020G30KT P6SM SCT060 BKN120
     FM230300 27011KT P6SM BKN120
     FM230600 26007KT P6SM SCT050 BKN080=



000
FTUS46 KPDT 221700
TAFPSC
TAF
KPSC 221737Z 2218/2318 23014G22KT P6SM VCSH BKN045 OVC060
     FM221900 22020G30KT P6SM SCT070 BKN100
     FM230400 23012G18KT P6SM OVC070
     FM230600 23011KT P6SM -SHRA BKN035 OVC050=



000
FTUS46 KPDT 221700
TAFRDM
TAF
KRDM 221737Z 2218/2318 31013G20KT P6SM SCT045 SCT080
     FM221900 31015G25KT P6SM SCT090 SCT120
     FM222200 31020G30KT P6SM SCT040 BKN090
     FM230300 29012KT P6SM BKN050 OVC070
     FM230600 23011KT P6SM -SHRASN OVC040=



000
FTUS46 KPDT 221700
TAFDLS
TAF
KDLS 221737Z 2218/2318 29022G31KT P6SM SCT120 BKN250
     FM222100 30025G33KT P6SM SCT080 BKN100
     FM230200 31018G25KT P6SM SCT060 BKN080
     FM230700 30011KT P6SM -SHRA BKN035 OVC050=



000
FTUS46 KPDT 221700
TAFPDT
TAF
KPDT 221737Z 2218/2318 26024G33KT P6SM -RA BKN045 BKN060
     FM221900 27026G36KT P6SM SCT090 BKN120
     FM230200 25017G27KT P6SM SCT050 BKN100
     FM230800 24014KT P6SM -SHRA SCT025 OVC035=



000
FTUS46 KPDT 221700
TAFALW
TAF
KALW 221737Z 2218/2318 20012G20KT 3SM -RA BKN022 OVC035
      TEMPO 2218/2220 2SM RA BKN020 OVC025
     FM222000 23020G28KT P6SM BKN050 OVC090
     FM230300 21014KT P6SM SCT070 BKN100
     FM230600 19011KT P6SM -SHRA BKN025 OVC035=



000
FTUS46 KPDT 221600 AAC
TAFALW
TAF AMD
KALW 221608Z 2216/2312 20013KT 3SM -RA BR SCT028 OVC035
      TEMPO 2216/2217 2SM -RA BR BKN028 OVC035
     FM221700 22014G20KT P6SM -RA BKN040 OVC070
     FM222100 23020G28KT P6SM BKN050 OVC090
     FM230300 21014KT P6SM SCT070 BKN100
     FM230600 19011KT P6SM -SHRA BKN025 OVC035=



000
FTUS46 KPDT 221600 AAA
TAFPDT
TAF AMD
KPDT 221601Z 2216/2312 18010KT P6SM -RA SCT025 SCT030 OVC040
     FM221700 24015G25KT P6SM -RA OVC040
     FM221800 26023G33KT P6SM VCSH OVC050
     FM222000 27026G36KT P6SM SCT070 BKN120
     FM230200 25017G27KT P6SM SCT050 BKN120
     FM230800 24014KT P6SM -RA OVC035=



000
FTUS46 KPDT 221500 AAB
TAFALW
TAF AMD
KALW 221531Z 2216/2312 20010KT P6SM -RA OVC035
     FM221700 22014G20KT P6SM -RA BKN040 OVC070
     FM222100 23020G28KT P6SM BKN050 OVC090
     FM230300 21012G18KT P6SM SCT070 BKN100
     FM230600 19011KT P6SM -SHRA BKN025 OVC035=



000
FTUS46 KPDT 221500 AAA
TAFYKM
TAF AMD
KYKM 221527Z 2215/2312 32012G19KT P6SM VCSH BKN070 OVC100
     FM221700 31014G20KT P6SM SCT050 BKN080
     FM222100 29020G30KT P6SM SCT050 BKN120
     FM230300 27011KT P6SM BKN120
     FM230600 26007KT P6SM SCT050 BKN080=



000
FTUS46 KPDT 221400 AAA
TAFRDM
TAF AMD
KRDM 221402Z 2214/2312 30011G16KT P6SM SCT050 BKN070
     FM221900 30015G25KT P6SM SCT070 SCT120
     FM222200 31020G30KT P6SM SCT040 BKN090
     FM230300 29012KT P6SM OVC050
     FM230600 23011KT P6SM -SHRASN OVC040=



000
FTUS46 KPDT 221300 AAA
TAFALW
TAF AMD
KALW 221359Z 2214/2312 20010KT 6SM -RA BR SCT012 BKN040 OVC080
     FM221500 22014G20KT 6SM -RA BR BKN040 OVC070
     FM222100 23020G28KT P6SM BKN050 OVC090
     FM230300 21012G18KT P6SM SCT070 BKN100
     FM230600 19011KT P6SM -SHRA BKN025 OVC035=



000
FTUS46 KPDT 221100 CCA
TAFPDT
TAF COR
KPDT 221129Z 2212/2312 26011KT P6SM -RA SCT025 OVC035
      TEMPO 2212/2215 3SM RA BR SCT008 BKN013 OVC020
     FM221500 26015G25KT P6SM -SHRA OVC050
     FM221800 26020G30KT P6SM VCSH OVC050
     FM222100 26023G33KT P6SM SCT070 BKN120
     FM230200 25017G27KT P6SM SCT050 BKN120
     FM230800 25013G20KT P6SM -RA OVC035=



000
FTUS46 KPDT 221100
TAFRDM
TAF
KRDM 221127Z 2212/2312 31006KT P6SM -SHRA SCT035 OVC050
     FM221500 30011KT P6SM SCT050 BKN070
     FM221900 30015G25KT P6SM SCT070 SCT120
     FM222200 31020G30KT P6SM SCT040 BKN090
     FM230300 29012KT P6SM OVC050
     FM230600 23011KT P6SM -SHRASN OVC040=



000
FTUS46 KPDT 221100
TAFALW
TAF
KALW 221127Z 2212/2312 20010KT 3SM -RA BR BKN012 OVC019
     FM221500 22014G20KT 6SM -RA BR BKN025 OVC040
     FM222100 23020G28KT P6SM BKN050 OVC090
     FM230300 21012G18KT P6SM SCT070 BKN100
     FM230600 19011KT P6SM -SHRA BKN025 OVC035=



000
FTUS46 KPDT 221100
TAFPSC
TAF
KPSC 221127Z 2212/2312 23008KT P6SM -RA OVC050
     FM221600 23014G22KT P6SM -SHRA BKN050 OVC100
     FM221900 22020G30KT P6SM SCT070 BKN100
     FM230400 23012G18KT P6SM OVC070
     FM230600 23011KT P6SM -SHRA BKN035 OVC050=



000
FTUS46 KPDT 221100
TAFDLS
TAF
KDLS 221127Z 2212/2312 30011KT P6SM -SHRA BKN060 OVC100
     FM221500 30015G25KT P6SM SCT060 BKN100
     FM221800 31020G30KT P6SM SCT080 SCT250
     FM230200 31015KT P6SM OVC080
     FM230500 30011KT P6SM -SHRA OVC060=



000
FTUS46 KPDT 221100
TAFYKM
TAF
KYKM 221127Z 2212/2312 28007KT P6SM -SHRA BKN050 OVC100
     FM221700 31014G20KT P6SM SCT050 BKN080
     FM222100 29020G30KT P6SM SCT050 BKN120
     FM230300 27011KT P6SM BKN120
     FM230600 26007KT P6SM SCT050 BKN080=



000
FTUS46 KPDT 221100
TAFPDT
TAF
KPDT 221127Z 2212/2312 26011KT P6SM -RA SCT025 OVC035
     FM221500 26015G25KT P6SM -SHRA OVC050
     FM221800 26020G30KT P6SM VCSH OVC050
     FM222100 26023G33KT P6SM SCT070 BKN120
     FM230200 25017G27KT P6SM SCT050 BKN120
     FM230800 25013G20KT P6SM -RA OVC035=



000
FTUS46 KPDT 220800 AAA
TAFPDT
TAF AMD
KPDT 220804Z 2208/2306 27011KT P6SM VCSH OVC025
     FM220900 26012KT P6SM -RA BKN025 OVC050
     FM221400 26015G25KT P6SM -RA OVC050
     FM221800 26020G30KT P6SM VCSH OVC050
     FM222100 26022G31KT P6SM SCT050 BKN120
     FM230200 25015G25KT P6SM BKN120=



000
FTUS46 KPDT 220500 AAA
TAFDLS
TAF AMD
KDLS 220557Z 2206/2306 31007KT 3SM -RA BR BKN035 OVC050
      TEMPO 2206/2209 P6SM NSW OVC060
     FM220900 31015KT P6SM -RA OVC040
     FM221400 30015G25KT P6SM BKN050 BKN070
     FM221800 31020G30KT P6SM SCT050 SCT250
     FM230200 31015KT P6SM OVC080=



000
FTUS46 KPDT 220500
TAFPDT
TAF
KPDT 220520Z 2206/2306 29010KT P6SM VCSH OVC080
     FM220900 26012KT P6SM -RA OVC050
     FM221400 26015G25KT P6SM -RA OVC050
     FM221800 26020G30KT P6SM VCSH OVC050
     FM222100 26022G31KT P6SM SCT050 BKN120
     FM230200 25015G25KT P6SM BKN120=



000
FTUS46 KPDT 220500
TAFRDM
TAF
KRDM 220520Z 2206/2306 32010KT 4SM -RA BR OVC015
     FM220800 31006KT P6SM -RA OVC025
     FM221500 30014KT P6SM SCT030 BKN040
     FM221800 30015G25KT P6SM SCT050 BKN120
     FM230300 29012KT P6SM OVC050=



000
FTUS46 KPDT 220500
TAFDLS
TAF
KDLS 220520Z 2206/2306 31007KT 3SM -RA BR BKN035 OVC050
     FM220900 31015KT P6SM -RA OVC040
     FM221400 30015G25KT P6SM BKN050 BKN070
     FM221800 31020G30KT P6SM SCT050 SCT250
     FM230200 31015KT P6SM OVC080=



000
FTUS46 KPDT 220500
TAFPSC
TAF
KPSC 220520Z 2206/2306 28010KT P6SM VCSH OVC100
     FM220800 24008KT P6SM -RA OVC060
     FM221600 23015G25KT P6SM VCSH BKN050 OVC100
     FM221800 22020G30KT P6SM SCT050 BKN100
     FM230400 23012KT P6SM BKN250=



000
FTUS46 KPDT 220500
TAFALW
TAF
KALW 220520Z 2206/2306 17008KT P6SM VCSH SCT080 OVC110
     FM220900 19010KT P6SM -RA OVC050
     FM221500 22015G23KT P6SM -RA OVC050
     FM221900 22018G28KT P6SM BKN050 OVC100
     FM230300 21013KT P6SM BKN250=



000
FTUS46 KPDT 220500
TAFYKM
TAF
KYKM 220520Z 2206/2306 30007KT P6SM -RA OVC050
     FM221500 31014G20KT P6SM SCT050 BKN060
     FM222100 28020G30KT P6SM SCT050 BKN120
     FM230300 27010KT P6SM BKN120=



000
FTUS46 KPDT 220400 AAC
TAFDLS
TAF AMD
KDLS 220414Z 2204/2224 31007KT P6SM -SHRA BKN035 OVC050
     FM220900 31015KT P6SM -RA OVC040
     FM221400 30015G25KT P6SM BKN050 BKN070
     FM221800 31020G30KT P6SM SCT050 SCT250=



000
FTUS46 KPDT 220200 AAB
TAFDLS
TAF AMD
KDLS 220258Z 2203/2224 33015KT P6SM -SHRA OVC050
     FM220600 31007KT P6SM -SHRA BKN035 OVC050
     FM221400 30010KT P6SM SCT050 BKN070=



000
FTUS46 KPDT 220200 AAB
TAFPDT
TAF AMD
KPDT 220258Z 2203/2224 27010KT P6SM OVC110
     FM220700 26009KT P6SM OVC080
     FM221000 25010KT P6SM -RA OVC050=



000
FTUS46 KPDT 220200 AAA
TAFDLS
TAF AMD
KDLS 220218Z 2202/2224 33015G25KT P6SM -SHRA OVC050
      TEMPO 2202/2203 3SM -RA BKN030
     FM220600 31007KT P6SM -SHRA BKN035 OVC050
     FM221400 30010KT P6SM SCT050 BKN070=



000
FTUS46 KPDT 220000 AAA
TAFPDT
TAF AMD
KPDT 220100Z 2201/2224 06010KT P6SM FEW120 SCT150 OVC180
     FM220400 27009KT P6SM SCT120 BKN150
     FM220700 26009KT P6SM OVC080
     FM221000 25010KT P6SM -RA OVC050=



000
FTUS46 KPDT 220100 AAA
TAFRDM
TAF AMD
KRDM 220100Z 2201/2224 32010KT P6SM VCSH SCT060 OVC080
     FM220600 29007KT P6SM -RA OVC025
     FM221500 30012KT P6SM SCT030 BKN040=



000
FTUS46 KPDT 212300
TAFPSC
TAF
KPSC 212320Z 2200/2224 34006KT P6SM FEW110 SCT160 OVC200
     FM220300 33007KT P6SM OVC070
     FM220700 VRB05KT P6SM -RA OVC050
     FM221000 22005KT P6SM -RA OVC040=



000
FTUS46 KPDT 212300
TAFRDM
TAF
KRDM 212320Z 2200/2224 27012G20KT P6SM VCSH SCT080 BKN090 OVC100
      TEMPO 2200/2202 20020G28KT
     FM220200 32010KT P6SM VCSH SCT060 OVC080
     FM220600 29007KT P6SM -RA OVC025
     FM221500 30012KT P6SM SCT030 BKN040=



000
FTUS46 KPDT 212300
TAFYKM
TAF
KYKM 212320Z 2200/2224 VRB05KT P6SM FEW120 SCT150 OVC200
     FM220200 VRB04KT P6SM SCT080 OVC100
     FM220400 30010KT P6SM -RA BKN050 OVC070
     FM221200 28007KT P6SM BKN060 BKN080
     FM221500 31009KT P6SM SCT050 BKN060=



000
FTUS46 KPDT 212300
TAFPDT
TAF
KPDT 212320Z 2200/2224 31012KT P6SM FEW120 SCT150 OVC180
     FM220400 27009KT P6SM SCT120 BKN150
     FM220700 26009KT P6SM OVC080
     FM221000 25010KT P6SM -RA OVC050=



000
FTUS46 KPDT 212300
TAFALW
TAF
KALW 212320Z 2200/2224 VRB05KT P6SM FEW100 SCT150 OVC180
     FM220400 16008KT P6SM SCT120 BKN150
     FM220800 19010KT P6SM OVC080
     FM221100 18008KT P6SM -RA OVC050=



000
FTUS46 KPDT 212300
TAFDLS
TAF
KDLS 212320Z 2200/2224 VRB05KT P6SM VCSH SCT060 OVC080
      TEMPO 2200/2204 23020G30KT -SHRA OVC050
     FM220600 31007KT P6SM -SHRA BKN035 OVC050
     FM221400 30010KT P6SM SCT050 BKN070=



000
FTUS46 KPDT 212100 AAA
TAFPDT
TAF AMD
KPDT 212148Z 2122/2218 33012G20KT P6SM FEW110 SCT150 OVC180
     FM220000 30010KT P6SM SCT120 BKN150
     FM220300 27009KT P6SM OVC080
     FM220900 25010KT P6SM -RA OVC050=



000
FTUS46 KPDT 211700
TAFRDM
TAF
KRDM 211740Z 2118/2218 VRB06KT P6SM SCT080 BKN090 OVC110
     FM212200 32010KT P6SM SCT060 OVC080
     FM220000 32009KT P6SM -RA OVC040
     FM220600 29007KT P6SM -RA OVC025=



000
FTUS46 KPDT 211700
TAFPSC
TAF
KPSC 211740Z 2118/2218 34006KT P6SM OVC120
     FM220300 33007KT P6SM OVC070
     FM220600 VRB05KT P6SM -RA OVC050
     FM221000 22005KT P6SM -RA OVC040=



000
FTUS46 KPDT 211700
TAFPDT
TAF
KPDT 211740Z 2118/2218 31009KT P6SM OVC120
     FM220300 28009KT P6SM OVC080
     FM220900 25010KT P6SM -RA OVC050=



000
FTUS46 KPDT 211700
TAFDLS
TAF
KDLS 211740Z 2118/2218 VRB06KT P6SM OVC100
     FM212200 31010KT P6SM SCT060 OVC080
     FM220000 32008KT P6SM -RA OVC040
     FM220600 31007KT P6SM -SHRA BKN035 OVC050
     FM221200 30010KT P6SM SCT050 BKN070=



000
FTUS46 KPDT 211700
TAFYKM
TAF
KYKM 211740Z 2118/2218 15006KT P6SM SCT080 OVC100
     FM220100 VRB06KT P6SM SCT060 OVC080
     FM220300 30010KT P6SM -RA SCT040 OVC050
     FM221100 28007KT P6SM BKN060 BKN080
     FM221500 31009KT P6SM SCT050 BKN060=



000
FTUS46 KPDT 211700
TAFALW
TAF
KALW 211740Z 2118/2218 22007KT P6SM SCT090 OVC120
     FM220000 23008KT P6SM OVC070
     FM220900 18008KT P6SM -RA OVC050=



000
FTUS46 KPDT 211100
TAFALW
TAF
KALW 211120Z 2112/2212 13006KT P6SM BKN200
     FM211600 22007KT P6SM OVC120
     FM220000 23008KT P6SM OVC070
     FM220700 18008KT P6SM -SHRA OVC050=



000
FTUS46 KPDT 211100
TAFPDT
TAF
KPDT 211120Z 2112/2212 15007KT P6SM BKN200
     FM211700 32009KT P6SM OVC120
     FM220300 28009KT P6SM OVC080
     FM220600 25010KT P6SM -SHRA OVC050=



000
FTUS46 KPDT 211100
TAFDLS
TAF
KDLS 211120Z 2112/2212 VRB05KT P6SM BKN150
     FM211400 VRB06KT P6SM OVC100
     FM212200 31010KT P6SM -SHRA OVC060
     FM220200 32008KT P6SM -RA OVC035
     FM220900 31011KT P6SM -SHRA BKN035 OVC050=



000
FTUS46 KPDT 211100
TAFYKM
TAF
KYKM 211120Z 2112/2212 28005KT P6SM BKN100
     FM211800 15006KT P6SM OVC070
     FM220100 VRB06KT P6SM -RA OVC050
     FM220500 28007KT P6SM -RA OVC035=



000
FTUS46 KPDT 211100
TAFRDM
TAF
KRDM 211120Z 2112/2212 17005KT P6SM BKN120
     FM211500 VRB06KT P6SM OVC080
     FM212200 32010KT P6SM -SHRA OVC060
     FM220100 32009KT P6SM -RA OVC040
     FM220600 29007KT P6SM -RA OVC025=



000
FTUS46 KPDT 211100
TAFPSC
TAF
KPSC 211120Z 2112/2212 VRB05KT P6SM BKN200
     FM211400 34006KT P6SM OVC120
     FM220300 33007KT P6SM OVC070
     FM220600 VRB05KT P6SM -SHRA OVC050
     FM221000 22005KT P6SM -RA OVC040=



000
FTUS46 KPDT 210500
TAFPSC
TAF
KPSC 210520Z 2106/2206 VRB05KT P6SM BKN200
     FM211500 35005KT P6SM OVC120
     FM220000 33007KT P6SM OVC070=



000
FTUS46 KPDT 210500
TAFRDM
TAF
KRDM 210520Z 2106/2206 VRB05KT P6SM BKN120
     FM211500 23008KT P6SM OVC090
     FM220100 32009KT P6SM -RA OVC035=



000
FTUS46 KPDT 210500
TAFYKM
TAF
KYKM 210520Z 2106/2206 26005KT P6SM BKN150
     FM211500 VRB06KT P6SM OVC100
     FM220300 23007KT P6SM -RA OVC040=



000
FTUS46 KPDT 210500
TAFALW
TAF
KALW 210520Z 2106/2206 11007KT P6SM BKN200
     FM211500 30007KT P6SM OVC120
     FM220000 23008KT P6SM OVC070=



000
FTUS46 KPDT 210500
TAFDLS
TAF
KDLS 210520Z 2106/2206 VRB05KT P6SM BKN150
     FM211500 32007KT P6SM OVC100
     FM220200 32008KT P6SM -RA OVC030=



000
FTUS46 KPDT 210500
TAFPDT
TAF
KPDT 210520Z 2106/2206 11007KT P6SM BKN200
     FM211600 32009KT P6SM OVC120
     FM220000 28009KT P6SM OVC070=



000
FTUS46 KPDT 202300
TAFALW
TAF
KALW 202333Z 2100/2124 VRB05KT P6SM FEW060 FEW150 BKN200
     FM210200 08006KT P6SM SCT150 BKN200
     FM210900 12007KT P6SM SCT120 SCT150 OVC200
     FM211400 16007KT P6SM SCT100 BKN120
     FM212000 21009KT P6SM BKN100 OVC120=



000
FTUS46 KPDT 202300
TAFPSC
TAF
KPSC 202333Z 2100/2124 34006KT P6SM SCT130 OVC200
     FM210200 VRB05KT P6SM SCT150 BKN180
     FM211200 01003KT P6SM BKN110 BKN150
     FM211500 VRB04KT P6SM BKN080 OVC130
     FM211800 22006KT P6SM BKN110 OVC130=



000
FTUS46 KPDT 202300
TAFPDT
TAF
KPDT 202333Z 2100/2124 02006KT P6SM FEW060 SCT150 BKN200
     FM210400 09005KT P6SM SCT150 BKN200
     FM210900 13006KT P6SM SCT120 SCT150 OVC200
     FM211300 16007KT P6SM SCT100 BKN120
     FM212000 31009KT P6SM BKN100 OVC120=



000
FTUS46 KPDT 202300
TAFDLS
TAF
KDLS 202333Z 2100/2124 VRB05KT P6SM SCT150 BKN200
     FM211100 VRB03KT P6SM BKN130 OVC150
     FM211400 VRB06KT P6SM SCT100 BKN120
     FM211800 31009KT P6SM SCT110 BKN130
     FM212100 32012KT P6SM SCT080 BKN100=



000
FTUS46 KPDT 202300
TAFRDM
TAF
KRDM 202333Z 2100/2124 32006KT P6SM SCT150 OVC220
     FM210600 VRB04KT P6SM SCT120 BKN150
     FM211200 16005KT P6SM SCT100 BKN120
     FM211700 19005KT P6SM SCT080 BKN100
     FM212100 32009KT P6SM SCT050 BKN070=



000
FTUS46 KPDT 202300
TAFYKM
TAF
KYKM 202333Z 2100/2124 14006KT P6SM FEW130 SCT150 BKN200
     FM210500 26007KT P6SM BKN200
     FM211100 32008KT P6SM SCT110 BKN150
     FM211400 VRB05KT P6SM BKN080 BKN100
     FM211900 14006KT P6SM SCT100 BKN130=



000
FTUS46 KPDT 201700
TAFPSC
TAF
KPSC 201720Z 2018/2118 22010KT P6SM BKN250
     FM202000 23009KT P6SM SCT130 BKN150
     FM210200 VRB05KT P6SM SCT150 BKN180
     FM211200 01003KT P6SM BKN110 BKN150
     FM211500 32004KT P6SM BKN080 OVC110=



000
FTUS46 KPDT 201700
TAFYKM
TAF
KYKM 201720Z 2018/2118 VRB04KT P6SM SCT110 BKN150
     FM202100 16006KT P6SM FEW120 SCT150 BKN180
     FM210500 26007KT P6SM SCT200
     FM211100 32008KT P6SM SCT110 BKN150
     FM211400 VRB05KT P6SM BKN080 BKN100=



000
FTUS46 KPDT 201700
TAFPDT
TAF
KPDT 201720Z 2018/2118 28007KT P6SM FEW060 OVC250
     FM202000 32007KT P6SM FEW060 FEW150 BKN250
     FM202200 02008KT P6SM FEW060 BKN200
     FM210400 09005KT P6SM SCT150 BKN200
     FM210900 13006KT P6SM SCT120 SCT150 OVC200=



000
FTUS46 KPDT 201700
TAFRDM
TAF
KRDM 201720Z 2018/2118 VRB06KT P6SM SCT250
     FM202200 32009KT P6SM SCT150 BKN200
     FM210000 34008KT P6SM BKN200
     FM210600 VRB05KT P6SM SCT120 BKN150
     FM211200 16005KT P6SM SCT100 BKN120=



000
FTUS46 KPDT 201700
TAFALW
TAF
KALW 201720Z 2018/2118 21010KT P6SM FEW060 BKN250
     FM202100 24008KT P6SM FEW060 FEW150 BKN200
     FM210200 08005KT P6SM SCT150 BKN200
     FM210900 12006KT P6SM SCT120 SCT150 OVC200
     FM211400 17007KT P6SM SCT090 BKN110=



000
FTUS46 KPDT 201700
TAFDLS
TAF
KDLS 201720Z 2018/2118 10006KT P6SM FEW110 SCT130 BKN200
     FM202100 VRB05KT P6SM SCT150 BKN200
     FM211100 VRB04KT P6SM BKN130 OVC150
     FM211400 VRB06KT P6SM BKN100 BKN120=



000
FTUS46 KPDT 201100
TAFALW
TAF
KALW 201120Z 2012/2112 18010KT P6SM SKC
     FM201500 22010KT P6SM SCT200
     FM202100 24008KT P6SM SCT150
     FM210200 08005KT P6SM BKN150
     FM210900 12006KT P6SM BKN120=



000
FTUS46 KPDT 201100
TAFYKM
TAF
KYKM 201120Z 2012/2112 27006KT P6SM SKC
     FM201600 VRB05KT P6SM BKN120
     FM202200 15006KT P6SM BKN150
     FM210500 26007KT P6SM BKN150
     FM211000 27010KT P6SM OVC100=



000
FTUS46 KPDT 201100
TAFPSC
TAF
KPSC 201120Z 2012/2112 23010KT P6SM SKC
     FM201500 22010KT P6SM BKN200
     FM202000 23009KT P6SM BKN120
     FM210200 VRB05KT P6SM BKN150
     FM211000 01003KT P6SM OVC100=



000
FTUS46 KPDT 201100
TAFDLS
TAF
KDLS 201120Z 2012/2112 29006KT P6SM SCT200
     FM201500 31006KT P6SM SCT120
     FM202100 32008KT P6SM SCT150
     FM210900 VRB04KT P6SM BKN100=



000
FTUS46 KPDT 201100
TAFRDM
TAF
KRDM 201120Z 2012/2112 15005KT P6SM SCT200
     FM201500 15006KT P6SM SCT150
     FM202200 32009KT P6SM BKN150
     FM210600 VRB05KT P6SM OVC120=



000
FTUS46 KPDT 201100
TAFPDT
TAF
KPDT 201120Z 2012/2112 16008KT P6SM SCT200
     FM201700 28007KT P6SM SCT150
     FM202300 02008KT P6SM BKN200
     FM210400 VRB05KT P6SM BKN150
     FM210900 13006KT P6SM BKN120=



000
FTUS46 KPDT 200800 AAA
TAFPSC
TAF AMD
KPSC 200828Z 2008/2106 24013KT P6SM SCT090
     FM201000 24010KT P6SM SKC
     FM201700 26007KT P6SM BKN200=



000
FTUS46 KPDT 200800 AAA
TAFALW
TAF AMD
KALW 200827Z 2008/2106 19010KT P6SM SKC
     FM201700 28008KT P6SM BKN200=



    US Dept of Commerce
    National Oceanic and Atmospheric Administration
    National Weather Service
    1325 East West Highway
    Silver Spring, MD 20910
    Page Author: NWS Internet Services Team
Disclaimer
Information Quality
Credits
Glossary
Privacy Policy
Freedom of Information Act (FOIA)
About Us
Career Opportunities